Time;durP1;ratioP1;P1;durP2;ratioP2;P2;SDS_P1;SDS_P2;PMS_P1;PMS_P2;Temp;Humidity;BMP_temperature;BMP_pressure;BME280_temperature;BME280_humidity;BME280_pressure;Samples;Min_cycle;Max_cycle;Signal;HPM_P1;HPM_P2
2022/04/30 00:00:16;;;;;;;8.60;7.70;;;;;;;17.75;51.90;95021.88;5049911;28;20191;-79
2022/04/30 00:02:43;;;;;;;8.30;7.50;;;;;;;17.77;51.93;95032.84;5049632;28;20230;-79
2022/04/30 00:05:14;;;;;;;8.30;7.50;;;;;;;17.80;51.84;95040.25;5049782;28;20222;-79
2022/04/30 00:07:41;;;;;;;8.77;7.83;;;;;;;17.80;51.86;95041.06;5049419;28;20187;-80
2022/04/30 00:10:09;;;;;;;8.53;7.63;;;;;;;17.79;52.20;95038.66;5049879;28;20231;-79
2022/04/30 00:12:37;;;;;;;8.50;7.57;;;;;;;17.78;52.33;95042.22;5050208;28;20195;-79
2022/04/30 00:15:05;;;;;;;8.60;7.50;;;;;;;17.76;52.25;95036.41;5049674;28;20195;-79
2022/04/30 00:17:33;;;;;;;10.73;8.50;;;;;;;17.75;52.41;95037.41;5030058;28;20909;-79
2022/04/30 00:20:03;;;;;;;9.23;8.23;;;;;;;17.72;52.37;95038.50;5047620;28;20671;-79
2022/04/30 00:22:30;;;;;;;8.20;7.37;;;;;;;17.71;52.66;95041.28;5049493;28;20686;-79
2022/04/30 00:24:56;;;;;;;9.30;8.30;;;;;;;17.41;52.58;94998.97;5049717;28;20268;-79
2022/04/30 00:27:26;;;;;;;10.27;8.23;;;;;;;17.44;52.57;94999.44;5031813;28;20195;-80
2022/04/30 00:29:56;;;;;;;8.80;7.90;;;;;;;17.65;52.72;95045.34;5031721;28;20207;-78
2022/04/30 00:32:23;;;;;;;10.03;8.03;;;;;;;17.64;52.73;95042.94;5049493;28;20194;-80
2022/04/30 00:34:53;;;;;;;9.57;8.57;;;;;;;17.60;53.02;95047.63;5031784;28;20223;-78
2022/04/30 00:37:21;;;;;;;10.53;8.67;;;;;;;17.43;53.00;95023.66;5031564;28;20195;-78
2022/04/30 00:39:49;;;;;;;10.30;8.53;;;;;;;17.59;53.12;95047.81;5049110;28;20321;-79
2022/04/30 00:42:16;;;;;;;9.50;8.50;;;;;;;17.09;52.96;94966.38;5031440;28;20194;-80
2022/04/30 00:44:43;;;;;;;9.93;8.93;;;;;;;17.54;53.03;95038.78;5050145;28;20191;-79
2022/04/30 00:47:18;;;;;;;11.30;10.10;;;;;;;17.45;52.91;95023.50;5049108;28;20195;-80
2022/04/30 00:49:46;;;;;;;9.57;8.57;;;;;;;17.40;53.23;95018.84;5031156;28;20219;-80
2022/04/30 00:52:16;;;;;;;14.83;9.37;;;;;;;17.50;53.28;95037.53;5049106;28;20191;-79
2022/04/30 00:54:49;;;;;;;11.03;8.20;;;;;;;17.49;53.35;95033.34;5049987;28;20241;-78
2022/04/30 00:57:20;;;;;;;10.17;9.17;;;;;;;17.48;53.37;95034.28;5049435;28;20191;-80
2022/04/30 00:59:47;;;;;;;13.07;9.17;;;;;;;17.40;53.27;95023.19;5049631;28;20191;-79
2022/04/30 01:02:16;;;;;;;8.83;7.73;;;;;;;17.45;53.36;95033.84;5052505;28;20198;-78
2022/04/30 01:04:43;;;;;;;9.57;8.60;;;;;;;17.42;53.32;95027.22;5053089;28;20246;-79
2022/04/30 01:07:11;;;;;;;9.03;8.13;;;;;;;17.28;53.30;95015.06;5052807;28;20673;-79
2022/04/30 01:09:42;;;;;;;10.63;8.90;;;;;;;17.40;53.51;95031.78;5052776;28;20861;-79
2022/04/30 01:12:11;;;;;;;10.17;8.97;;;;;;;17.38;53.57;95030.34;5052493;28;20194;-81
2022/04/30 01:14:39;;;;;;;8.33;7.43;;;;;;;17.37;53.41;95029.53;5052239;28;20662;-79
2022/04/30 01:17:08;;;;;;;9.33;8.43;;;;;;;17.37;53.56;95033.91;5052065;28;20214;-79
2022/04/30 01:19:40;;;;;;;9.40;7.80;;;;;;;17.18;53.43;95002.31;5052913;28;20214;-79
2022/04/30 01:22:11;;;;;;;9.67;8.50;;;;;;;17.32;53.63;95028.44;5052020;28;20288;-81
2022/04/30 01:24:49;;;;;;;9.43;8.03;;;;;;;17.25;53.68;95020.56;5015791;28;21010;-79
2022/04/30 01:27:17;;;;;;;9.70;8.07;;;;;;;17.13;53.46;95001.22;5033957;28;20584;-80
2022/04/30 01:29:45;;;;;;;9.10;8.20;;;;;;;17.25;53.73;95026.53;5034478;28;20227;-79
2022/04/30 01:37:41;;;;;;;8.77;7.67;;;;;;;16.93;53.78;94983.59;5055843;28;20194;-79
2022/04/30 01:40:11;;;;;;;9.17;8.23;;;;;;;17.13;53.76;95022.72;5052294;28;20196;-79
2022/04/30 01:42:39;;;;;;;8.77;7.90;;;;;;;16.98;53.82;95001.16;5052393;28;20179;-79
2022/04/30 01:45:08;;;;;;;9.00;7.33;;;;;;;16.56;53.92;94940.28;5051955;28;20198;-79
2022/04/30 01:47:39;;;;;;;8.90;8.00;;;;;;;17.05;53.84;95015.81;5034241;28;20206;-79
2022/04/30 01:50:08;;;;;;;12.00;8.73;;;;;;;16.96;53.78;95016.00;5051851;28;20229;-79
2022/04/30 01:52:38;;;;;;;9.33;7.93;;;;;;;16.89;53.95;95002.19;5050341;28;20199;-79
2022/04/30 01:55:06;;;;;;;10.10;8.43;;;;;;;16.91;53.73;95006.19;5054092;28;20191;-79
2022/04/30 01:57:39;;;;;;;10.60;7.73;;;;;;;16.96;54.21;95013.44;5056759;28;20202;-78
2022/04/30 02:00:09;;;;;;;9.20;7.73;;;;;;;16.82;54.09;94998.66;5034202;28;20218;-80
2022/04/30 02:02:38;;;;;;;7.73;7.00;;;;;;;16.85;54.16;94999.13;5051948;28;20249;-80
2022/04/30 02:05:13;;;;;;;8.83;7.60;;;;;;;16.90;54.02;95021.88;5051448;28;20566;-79
2022/04/30 02:07:48;;;;;;;7.97;7.17;;;;;;;16.60;54.13;94982.88;5051559;28;20286;-79
2022/04/30 02:10:19;;;;;;;8.70;7.60;;;;;;;16.70;53.97;94995.59;5051386;28;20218;-80
2022/04/30 02:13:00;;;;;;;8.47;7.53;;;;;;;16.82;54.31;95024.47;5051167;28;20203;-79
2022/04/30 02:15:29;;;;;;;9.77;7.23;;;;;;;16.70;54.41;95005.94;5051123;28;20198;-80
2022/04/30 02:17:59;;;;;;;7.90;7.20;;;;;;;16.77;54.55;95018.03;5051421;28;20191;-79
2022/04/30 02:20:29;;;;;;;8.20;6.90;;;;;;;16.76;54.54;95011.28;5051132;28;20227;-79
2022/04/30 02:22:58;;;;;;;8.17;6.73;;;;;;;16.75;54.35;95009.66;5033446;28;20622;-79
2022/04/30 02:25:41;;;;;;;10.50;6.97;;;;;;;16.74;54.45;95020.94;5050677;28;20199;-80
2022/04/30 02:28:11;;;;;;;8.23;7.43;;;;;;;16.46;54.63;94975.84;5050943;28;20688;-79
2022/04/30 02:30:39;;;;;;;8.53;7.63;;;;;;;16.70;54.79;95009.31;5050959;28;20221;-79
2022/04/30 02:33:08;;;;;;;9.27;7.27;;;;;;;16.60;54.72;94995.78;5051058;28;20183;-79
2022/04/30 02:35:36;;;;;;;9.07;7.53;;;;;;;16.67;54.72;95014.03;5051315;28;20202;-79
2022/04/30 02:38:06;;;;;;;9.47;7.03;;;;;;;16.64;54.89;95010.00;5053610;28;20197;-80
2022/04/30 02:40:33;;;;;;;8.87;7.73;;;;;;;16.60;54.90;95008.72;5052774;28;20278;-79
2022/04/30 02:43:04;;;;;;;9.43;7.50;;;;;;;16.58;55.17;95013.25;5050536;28;20187;-79
2022/04/30 02:45:33;;;;;;;10.23;8.27;;;;;;;16.57;55.12;95009.03;5050649;28;20219;-79
2022/04/30 02:48:02;;;;;;;10.10;7.47;;;;;;;16.54;55.15;95010.19;5050660;28;20664;-79
2022/04/30 02:50:30;;;;;;;9.00;8.10;;;;;;;16.52;55.07;95006.94;5050600;28;20584;-80
2022/04/30 02:52:58;;;;;;;13.30;8.10;;;;;;;16.37;55.14;94987.19;5050834;28;20198;-79
2022/04/30 02:55:28;;;;;;;9.90;8.90;;;;;;;16.47;55.24;95005.84;5050603;28;20195;-79
2022/04/30 03:00:44;;;;;;;10.83;7.80;;;;;;;16.42;55.30;95001.19;5050759;28;20604;-80
2022/04/30 03:03:12;;;;;;;10.73;8.27;;;;;;;16.20;55.24;94971.72;5050738;28;20187;-80
2022/04/30 03:05:42;;;;;;;9.17;8.27;;;;;;;16.40;55.24;95003.09;5050626;28;20277;-80
2022/04/30 03:08:12;;;;;;;10.60;8.63;;;;;;;16.37;55.35;95000.09;5050018;28;20201;-80
2022/04/30 03:10:39;;;;;;;9.93;8.93;;;;;;;16.03;55.56;94941.78;5050208;28;20250;-79
2022/04/30 03:13:06;;;;;;;10.63;8.70;;;;;;;16.24;55.55;94975.59;5050529;28;20555;-79
2022/04/30 03:15:34;;;;;;;10.60;8.73;;;;;;;15.77;55.45;94908.47;5050291;28;20194;-79
2022/04/30 03:23:44;;;;;;;9.37;8.47;;;;;;;16.23;55.83;95001.53;5031116;28;20672;-79
2022/04/30 03:26:15;;;;;;;8.80;7.97;;;;;;;16.21;55.47;94993.97;5032194;28;20331;-79
2022/04/30 03:28:43;;;;;;;10.53;8.37;;;;;;;16.17;55.88;94997.84;5050282;28;20594;-78
2022/04/30 03:31:11;;;;;;;8.93;8.03;;;;;;;16.17;55.78;95000.44;5049783;28;20210;-78
2022/04/30 03:33:40;;;;;;;11.60;8.33;;;;;;;16.16;55.99;95005.78;5050465;28;20241;-80
2022/04/30 03:36:10;;;;;;;10.00;8.50;;;;;;;16.14;55.94;95007.69;5050546;28;20202;-78
2022/04/30 03:38:44;;;;;;;11.13;8.33;;;;;;;16.13;55.83;95019.00;5033155;28;20199;-77
2022/04/30 03:41:12;;;;;;;9.77;8.17;;;;;;;16.11;56.14;95008.84;5049239;28;20687;-79
2022/04/30 03:43:40;;;;;;;9.73;7.70;;;;;;;15.73;56.34;94956.97;5050177;28;20191;-79
2022/04/30 03:46:07;;;;;;;8.60;7.73;;;;;;;15.61;56.12;94945.34;5031599;28;20206;-78
2022/04/30 03:48:35;;;;;;;8.77;7.87;;;;;;;15.90;56.23;94987.91;5049977;28;20581;-79
2022/04/30 03:51:05;;;;;;;9.53;8.53;;;;;;;16.10;56.19;95024.47;5049296;28;20697;-79
2022/04/30 03:53:32;;;;;;;10.30;8.37;;;;;;;16.11;56.04;95016.59;5049892;28;20195;-80
2022/04/30 03:55:59;;;;;;;8.53;7.73;;;;;;;16.13;56.29;95016.41;5049911;28;20203;-79
2022/04/30 03:58:26;;;;;;;13.60;8.00;;;;;;;16.15;56.07;95022.19;5050027;28;20676;-79
2022/04/30 04:00:53;;;;;;;11.50;8.13;;;;;;;16.17;56.10;95020.28;5049594;28;20187;-79
2022/04/30 04:03:21;;;;;;;9.43;7.60;;;;;;;16.21;56.45;95026.72;5050172;28;20230;-79
2022/04/30 04:05:53;;;;;;;11.97;8.13;;;;;;;16.10;56.23;95002.03;5050100;28;20186;-79
2022/04/30 04:08:34;;;;;;;9.43;8.40;;;;;;;16.07;56.39;94994.66;5032855;28;20201;-79
2022/04/30 04:11:01;;;;;;;10.47;8.30;;;;;;;16.28;56.18;95018.16;5031824;28;20316;-80
2022/04/30 04:18:55;;;;;;;9.17;8.27;;;;;;;16.37;56.42;95024.13;4988351;28;20204;-79
2022/04/30 04:21:25;;;;;;;9.40;8.23;;;;;;;16.11;56.37;94974.50;4987831;28;20268;-80
2022/04/30 04:29:37;;;;;;;12.70;8.17;;;;;;;16.51;57.44;95028.59;4945921;29;20199;-79
2022/04/30 04:32:07;;;;;;;9.57;8.17;;;;;;;16.62;57.28;95027.41;4914474;29;20313;-79
2022/04/30 04:34:36;;;;;;;12.67;8.00;;;;;;;16.63;57.05;95015.34;4899850;29;20369;-81
2022/04/30 04:37:06;;;;;;;10.10;7.77;;;;;;;16.82;56.91;95024.47;4934049;29;20211;-81
2022/04/30 04:39:34;;;;;;;9.53;7.63;;;;;;;16.82;56.61;95006.41;4933750;29;20199;-79
2022/04/30 04:42:03;;;;;;;10.60;8.73;;;;;;;16.98;56.43;95032.16;4933941;29;20580;-80
2022/04/30 04:47:16;;;;;;;10.30;8.13;;;;;;;17.14;56.07;95031.25;4920763;29;20207;-80
2022/04/30 04:49:44;;;;;;;10.43;8.40;;;;;;;17.09;55.81;95013.69;4919234;29;20628;-78
2022/04/30 04:52:13;;;;;;;9.00;7.80;;;;;;;17.37;55.97;95034.69;4917901;29;20229;-79
2022/04/30 04:54:48;;;;;;;9.00;7.50;;;;;;;17.53;56.39;95039.78;4934454;29;20210;-78
2022/04/30 04:57:16;;;;;;;10.70;7.70;;;;;;;17.71;56.19;95043.88;4985306;28;20278;-79
2022/04/30 04:59:43;;;;;;;7.90;7.10;;;;;;;17.86;55.61;95049.09;4999510;28;20651;-79
2022/04/30 05:02:10;;;;;;;12.13;8.03;;;;;;;17.98;55.05;95042.53;5050362;28;20541;-80
2022/04/30 05:04:37;;;;;;;9.20;8.30;;;;;;;18.09;54.74;95049.06;5053031;28;20253;-80
2022/04/30 05:07:04;;;;;;;10.43;7.80;;;;;;;18.20;54.40;95041.69;5052520;28;20568;-81
2022/04/30 05:09:32;;;;;;;8.93;7.57;;;;;;;18.22;54.17;95034.56;5052857;28;20187;-80
2022/04/30 05:12:02;;;;;;;15.13;8.50;;;;;;;18.36;53.87;95037.34;5053074;28;20219;-80
2022/04/30 05:14:35;;;;;;;7.83;7.03;;;;;;;18.57;54.05;95045.22;5052039;28;20638;-79
2022/04/30 05:17:05;;;;;;;11.20;6.97;;;;;;;18.67;54.02;95037.19;5035312;28;20234;-80
2022/04/30 05:19:36;;;;;;;6.90;6.30;;;;;;;18.94;54.41;95051.31;5051980;28;20610;-79
2022/04/30 05:22:04;;;;;;;8.63;7.10;;;;;;;19.21;55.15;95052.44;5034786;28;20714;-79
2022/04/30 05:24:31;;;;;;;7.63;6.77;;;;;;;19.55;56.26;95051.81;5052680;28;20672;-80
2022/04/30 05:26:58;;;;;;;8.97;7.03;;;;;;;19.89;56.61;95040.00;5052255;28;20191;-80
2022/04/30 05:29:26;;;;;;;8.10;7.27;;;;;;;20.14;56.04;95007.44;5052799;28;20218;-79
2022/04/30 05:31:56;;;;;;;7.40;6.70;;;;;;;20.87;55.60;95043.50;5053056;28;20301;-79
2022/04/30 05:34:27;;;;;;;9.27;6.53;;;;;;;21.34;55.15;95036.72;5056514;28;20739;-80
2022/04/30 05:36:55;;;;;;;7.97;5.70;;;;;;;22.00;54.51;95048.03;5054460;28;20198;-80
2022/04/30 05:39:24;;;;;;;7.50;6.80;;;;;;;22.59;53.03;95054.25;5035316;28;20324;-80
2022/04/30 05:41:52;;;;;;;7.43;5.85;;;;;;;23.18;51.84;95053.31;5052528;28;20252;-81
2022/04/30 05:44:19;;;;;;;7.53;6.20;;;;;;;23.59;50.28;95038.28;5052774;28;20183;-80
2022/04/30 05:46:48;;;;;;;7.53;6.10;;;;;;;24.00;48.93;95032.59;5052068;28;20198;-80
2022/04/30 05:49:16;;;;;;;6.53;5.90;;;;;;;24.52;47.58;95064.56;5052446;28;20199;-80
2022/04/30 05:51:51;;;;;;;6.95;6.18;;;;;;;24.70;46.04;95042.88;5053486;28;20226;-81
2022/04/30 05:54:20;;;;;;;6.10;5.50;;;;;;;25.11;45.20;95063.19;5055820;28;20678;-81
2022/04/30 05:56:51;;;;;;;6.93;6.07;;;;;;;25.08;44.99;95015.69;5052361;28;20219;-81
2022/04/30 05:59:27;;;;;;;6.18;5.57;;;;;;;25.56;44.43;95046.31;5052189;28;20192;-81
2022/04/30 06:02:00;;;;;;;7.03;6.35;;;;;;;25.87;43.49;95055.81;5033859;28;20215;-79
2022/04/30 06:04:28;;;;;;;10.80;6.50;;;;;;;25.98;42.97;95047.97;5051827;28;20190;-81
2022/04/30 06:06:58;;;;;;;6.32;5.72;;;;;;;26.14;42.67;95057.00;5033920;28;20199;-81
2022/04/30 06:09:30;;;;;;;8.73;7.00;;;;;;;26.22;42.30;95055.88;5013040;28;20625;-82
2022/04/30 06:12:17;;;;;;;7.53;6.75;;;;;;;26.27;41.74;95059.41;5031714;28;20231;-81
2022/04/30 06:14:45;;;;;;;8.25;6.22;;;;;;;26.38;40.99;95067.50;5047787;28;20183;-81
2022/04/30 06:17:13;;;;;;;7.38;6.68;;;;;;;26.45;43.52;95066.41;5034045;28;20191;-82
2022/04/30 06:19:41;;;;;;;7.95;5.97;;;;;;;26.51;43.51;95072.56;5051837;28;20175;-80
2022/04/30 06:22:08;;;;;;;8.10;6.22;;;;;;;26.50;43.85;95061.28;5032689;28;20262;-81
2022/04/30 06:24:36;;;;;;;7.40;5.50;;;;;;;26.30;44.18;95039.81;5054643;28;20226;-81
2022/04/30 06:27:03;;;;;;;6.07;5.47;;;;;;;26.23;43.65;95018.13;5030779;28;20202;-79
2022/04/30 06:29:30;;;;;;;6.28;5.10;;;;;;;26.59;44.09;95063.56;5052686;28;20180;-79
2022/04/30 06:31:59;;;;;;;6.38;5.68;;;;;;;26.61;44.47;95057.06;5067991;28;20221;-89
2022/04/30 06:34:30;;;;;;;6.22;5.63;;;;;;;26.49;43.97;95017.72;5077400;28;20179;-81
2022/04/30 06:36:57;;;;;;;11.18;6.55;;;;;;;26.84;42.39;95065.94;5067323;28;20187;-82
2022/04/30 06:39:23;;;;;;;7.35;5.75;;;;;;;26.84;42.48;95058.88;5066079;28;20179;-83
2022/04/30 06:42:08;;;;;;;7.40;6.50;;;;;;;26.84;41.82;95050.19;5054671;28;20667;-79
2022/04/30 06:44:35;;;;;;;7.97;5.78;;;;;;;26.87;42.09;95034.00;5052334;28;20209;-81
2022/04/30 06:47:02;;;;;;;6.63;5.93;;;;;;;27.13;41.04;95053.72;5048553;28;20198;-80
2022/04/30 06:49:37;;;;;;;11.43;7.60;;;;;;;26.95;39.17;95017.91;5049499;28;20191;-80
2022/04/30 06:52:24;;;;;;;12.32;7.35;;;;;;;27.14;37.99;95053.50;5049913;28;20217;-80
2022/04/30 06:57:50;;;;;;;7.72;7.03;;;;;;;27.16;40.63;95054.06;5049460;28;20720;-85
2022/04/30 07:03:47;;;;;;;12.65;6.60;;;;;;;27.12;41.02;95003.03;4923901;29;20199;-81
2022/04/30 07:06:17;;;;;;;8.93;7.47;;;;;;;27.41;41.71;95042.44;4930897;29;20199;-83
2022/04/30 07:08:45;;;;;;;11.27;7.40;;;;;;;27.53;41.30;95037.94;4930278;29;20617;-82
2022/04/30 07:11:11;;;;;;;8.85;7.25;;;;;;;27.60;38.97;95046.50;4928538;29;20254;-80
2022/04/30 07:13:39;;;;;;;13.75;7.38;;;;;;;27.69;41.01;95050.34;4929456;29;20187;-79
2022/04/30 07:21:36;;;;;;;9.50;6.32;;;;;;;28.35;39.40;95053.31;4927434;29;20724;-77
2022/04/30 07:24:10;;;;;;;11.50;6.70;;;;;;;28.32;39.42;95032.72;4927890;29;20206;-77
2022/04/30 07:26:40;;;;;;;14.95;6.90;;;;;;;28.55;37.67;95052.84;4927640;29;20645;-79
2022/04/30 07:29:10;;;;;;;11.93;7.18;;;;;;;28.59;38.30;95040.78;4916421;29;20195;-84
2022/04/30 07:31:37;;;;;;;22.05;7.93;;;;;;;28.76;39.35;95051.28;4927600;29;20335;-79
2022/04/30 07:34:04;;;;;;;12.43;6.95;;;;;;;28.87;39.29;95047.75;4935774;28;20209;-78
2022/04/30 07:36:33;;;;;;;17.38;7.38;;;;;;;28.94;39.02;95040.47;4950277;28;20727;-79
2022/04/30 07:39:09;;;;;;;14.40;6.45;;;;;;;29.05;39.31;95041.41;4950943;28;20200;-81
2022/04/30 07:41:41;;;;;;;12.18;6.72;;;;;;;29.19;39.95;95050.56;4966277;28;20228;-82
2022/04/30 07:44:15;;;;;;;8.98;5.75;;;;;;;29.03;39.52;95019.81;4966669;28;20201;-86
2022/04/30 07:46:42;;;;;;;10.63;6.18;;;;;;;29.23;39.55;95035.84;4951508;28;20623;-82
2022/04/30 07:49:19;;;;;;;9.48;5.95;;;;;;;29.29;38.27;95041.19;4952287;28;20202;-81
2022/04/30 07:51:57;;;;;;;9.85;6.25;;;;;;;29.33;38.71;95040.44;4966499;28;20780;-80
2022/04/30 07:54:59;;;;;;;8.10;5.97;;;;;;;29.38;37.96;95040.50;4970710;28;20197;-75
2022/04/30 07:57:28;;;;;;;7.82;5.20;;;;;;;29.37;37.33;95035.47;4971628;28;20348;-77
2022/04/30 07:59:57;;;;;;;6.88;5.97;;;;;;;29.40;37.53;95032.34;5006968;28;20201;-81
2022/04/30 08:02:25;;;;;;;6.43;5.30;;;;;;;29.46;37.55;95036.63;5050340;28;20199;-77
2022/04/30 08:04:55;;;;;;;6.85;5.57;;;;;;;29.52;37.36;95030.34;5049743;28;20229;-78
2022/04/30 08:07:23;;;;;;;7.97;5.57;;;;;;;29.59;37.84;95033.63;5031950;28;20566;-80
2022/04/30 08:09:53;;;;;;;8.00;6.20;;;;;;;29.65;37.23;95040.53;5051393;28;20190;-80
2022/04/30 08:12:23;;;;;;;6.90;5.93;;;;;;;29.68;37.01;95036.63;5053474;28;20218;-83
2022/04/30 08:14:52;;;;;;;7.25;5.18;;;;;;;29.73;35.62;95032.19;5054031;28;20199;-77
2022/04/30 08:17:21;;;;;;;6.00;5.40;;;;;;;29.79;34.92;95019.03;5052820;28;20692;-77
2022/04/30 08:19:51;;;;;;;5.40;4.90;;;;;;;29.91;34.47;95031.03;5053190;28;20222;-85
2022/04/30 08:22:19;;;;;;;8.95;5.65;;;;;;;29.98;33.77;95031.63;5054457;28;20230;-82
2022/04/30 08:24:48;;;;;;;6.05;5.45;;;;;;;29.95;33.94;95032.13;5055077;28;20249;-82
2022/04/30 08:27:24;;;;;;;7.53;5.13;;;;;;;29.90;33.72;95026.00;5054501;28;20222;-84
2022/04/30 08:32:38;;;;;;;5.75;5.15;;;;;;;29.59;32.96;94996.72;5055257;28;20218;-88
2022/04/30 08:35:10;;;;;;;7.68;4.97;;;;;;;29.75;32.73;95021.41;5055019;28;20197;-79
2022/04/30 08:37:40;;;;;;;5.50;5.00;;;;;;;29.86;32.77;95030.97;5037110;28;20198;-83
2022/04/30 08:40:12;;;;;;;7.15;5.72;;;;;;;29.90;32.97;95021.53;5053354;28;20199;-77
2022/04/30 08:42:51;;;;;;;6.07;5.35;;;;;;;29.92;32.30;95016.00;5054482;28;20671;-86
2022/04/30 08:45:23;;;;;;;5.50;5.00;;;;;;;29.91;32.77;95031.03;5053385;28;20227;-77
2022/04/30 08:47:52;;;;;;;5.70;5.07;;;;;;;29.70;32.41;94981.78;5037108;28;20187;-85
2022/04/30 08:50:18;;;;;;;5.15;4.60;;;;;;;30.00;32.65;95020.81;5055788;28;20197;-80
2022/04/30 08:52:46;;;;;;;8.85;5.10;;;;;;;29.94;32.60;95009.44;5055333;28;20217;-77
2022/04/30 08:55:13;;;;;;;5.45;4.95;;;;;;;30.04;32.10;95018.47;5054732;28;20198;-78
2022/04/30 08:57:39;;;;;;;5.70;4.68;;;;;;;30.07;32.47;95021.41;5055156;28;20194;-78
2022/04/30 09:00:09;;;;;;;6.30;5.68;;;;;;;30.13;32.76;95019.59;5054486;28;20195;-80
2022/04/30 09:05:19;;;;;;;5.78;5.20;;;;;;;30.18;32.44;95009.94;5055042;28;20239;-82
2022/04/30 09:07:54;;;;;;;6.38;5.30;;;;;;;30.08;32.79;95015.06;5054651;28;20198;-82
2022/04/30 09:10:31;;;;;;;6.85;5.15;;;;;;;30.01;32.75;95014.50;5050464;28;20212;-79
2022/04/30 09:13:07;;;;;;;5.72;5.15;;;;;;;29.87;33.04;95000.13;5055811;28;20229;-78
2022/04/30 09:15:38;;;;;;;4.70;4.30;;;;;;;29.82;33.03;95008.78;5055194;28;20717;-77
2022/04/30 09:18:09;;;;;;;5.13;4.63;;;;;;;29.72;33.23;95003.44;5034939;28;20198;-77
2022/04/30 09:20:51;;;;;;;6.80;4.97;;;;;;;29.60;33.20;94993.03;5035027;28;20194;-77
2022/04/30 09:23:35;;;;;;;5.20;4.47;;;;;;;29.48;32.90;95003.69;5035454;28;20191;-77
2022/04/30 09:26:08;;;;;;;4.90;4.00;;;;;;;29.37;32.63;94999.38;5055130;28;20199;-77
2022/04/30 09:28:46;;;;;;;5.75;4.38;;;;;;;29.28;32.58;94997.44;5038130;28;20974;-76
2022/04/30 09:31:21;;;;;;;6.18;4.60;;;;;;;29.21;32.50;94995.78;5058194;28;20248;-75
2022/04/30 09:33:57;;;;;;;4.85;4.10;;;;;;;29.14;33.15;94989.88;5055316;28;20226;-75
2022/04/30 09:39:15;;;;;;;4.78;4.07;;;;;;;28.94;33.23;94985.16;5054304;28;20312;-80
2022/04/30 09:41:53;;;;;;;4.68;4.03;;;;;;;28.89;33.20;94981.69;5055825;28;20259;-74
2022/04/30 09:44:28;;;;;;;7.28;4.00;;;;;;;28.81;33.30;94990.81;5054262;28;20191;-75
2022/04/30 09:46:59;;;;;;;4.38;4.03;;;;;;;28.32;33.07;94927.47;5054599;28;20217;-75
2022/04/30 09:54:57;;;;;;;4.20;3.85;;;;;;;28.33;33.31;94959.88;4989336;28;20287;-75
2022/04/30 09:57:24;;;;;;;4.57;3.70;;;;;;;28.29;33.34;94982.44;5009404;28;20207;-75
2022/04/30 09:59:56;;;;;;;4.97;3.85;;;;;;;28.16;32.96;94978.31;5010047;28;20196;-76
2022/04/30 10:02:31;;;;;;;6.18;4.22;;;;;;;28.00;33.35;94972.00;4993501;28;20196;-76
2022/04/30 10:05:05;;;;;;;4.07;3.20;;;;;;;27.97;33.63;94980.38;5009524;28;20202;-75
2022/04/30 10:07:36;;;;;;;3.67;3.35;;;;;;;27.81;33.55;94955.69;5009639;28;20196;-76
2022/04/30 10:10:25;;;;;;;4.05;3.70;;;;;;;27.81;33.89;94970.63;5010141;28;20255;-75
2022/04/30 10:13:15;;;;;;;3.47;3.17;;;;;;;27.71;33.46;94961.53;5010124;28;20220;-78
2022/04/30 10:15:51;;;;;;;3.53;3.22;;;;;;;27.38;33.65;94916.84;5010140;28;20197;-78
2022/04/30 10:18:24;;;;;;;3.30;3.00;;;;;;;27.39;33.72;94934.97;5010462;28;20196;-76
2022/04/30 10:21:00;;;;;;;3.97;3.63;;;;;;;27.44;33.76;94950.03;5010294;28;20192;-76
2022/04/30 10:23:29;;;;;;;3.88;3.30;;;;;;;27.36;33.35;94947.78;5010150;28;20198;-75
2022/04/30 10:26:10;;;;;;;3.40;3.10;;;;;;;27.17;33.90;94923.56;5008780;28;20683;-78
2022/04/30 10:28:39;;;;;;;3.63;3.28;;;;;;;27.23;33.91;94933.91;5009498;28;20188;-76
2022/04/30 10:31:09;;;;;;;3.63;3.30;;;;;;;27.20;33.79;94946.72;5015744;28;20248;-75
2022/04/30 10:33:48;;;;;;;4.97;3.22;;;;;;;27.06;33.80;94935.66;5051899;28;20250;-77
2022/04/30 10:36:15;;;;;;;3.20;2.95;;;;;;;27.07;33.84;94941.72;5052331;28;20183;-77
2022/04/30 10:39:04;;;;;;;3.47;3.17;;;;;;;26.94;33.84;94925.22;5050891;28;20194;-76
2022/04/30 10:41:44;;;;;;;4.20;3.38;;;;;;;26.91;33.85;94924.91;5051454;28;20194;-79
2022/04/30 10:44:14;;;;;;;4.15;3.60;;;;;;;26.90;34.06;94925.91;5052754;28;20198;-76
2022/04/30 10:46:43;;;;;;;4.40;3.67;;;;;;;26.88;34.06;94933.22;5052982;28;20371;-79
2022/04/30 10:49:12;;;;;;;5.95;3.80;;;;;;;26.79;33.91;94929.38;5052161;28;20627;-79
2022/04/30 10:51:44;;;;;;;3.33;3.13;;;;;;;26.66;34.28;94920.75;5051511;28;20190;-77
2022/04/30 10:54:13;;;;;;;3.47;3.17;;;;;;;26.66;33.89;94927.81;5052631;28;20280;-79
2022/04/30 10:56:42;;;;;;;3.75;3.45;;;;;;;26.56;34.18;94927.63;5052551;28;20224;-78
2022/04/30 10:59:12;;;;;;;3.53;3.22;;;;;;;26.43;34.32;94923.41;5052305;28;20194;-76
2022/04/30 11:01:56;;;;;;;3.75;3.45;;;;;;;26.16;34.12;94892.38;5053172;28;20201;-76
2022/04/30 11:04:27;;;;;;;3.50;3.20;;;;;;;26.33;34.28;94928.41;5051713;28;20199;-78
2022/04/30 11:07:02;;;;;;;3.75;3.45;;;;;;;26.28;34.34;94922.03;5053099;28;20195;-77
2022/04/30 11:09:33;;;;;;;5.85;3.47;;;;;;;26.24;34.61;94936.63;5051814;28;20186;-80
2022/04/30 11:12:31;;;;;;;3.88;3.58;;;;;;;26.18;34.43;94921.03;5052969;28;20270;-77
2022/04/30 11:15:04;;;;;;;3.67;3.25;;;;;;;26.19;34.61;94926.03;5053313;28;20225;-75
2022/04/30 11:17:46;;;;;;;3.88;3.25;;;;;;;26.21;34.53;94923.97;5033000;28;20206;-76
2022/04/30 11:20:28;;;;;;;3.67;3.38;;;;;;;26.22;34.29;94920.34;5054049;28;20191;-76
2022/04/30 11:23:08;;;;;;;3.65;3.35;;;;;;;26.26;34.50;94912.81;5070129;28;20229;-76
2022/04/30 11:25:48;;;;;;;4.60;3.60;;;;;;;26.30;34.27;94921.81;5070703;28;20198;-75
2022/04/30 11:28:17;;;;;;;4.85;3.22;;;;;;;26.37;34.34;94922.47;5037819;28;20311;-76
2022/04/30 11:33:45;;;;;;;3.10;2.83;;;;;;;26.38;34.16;94902.28;5070153;28;20281;-76
2022/04/30 11:36:24;;;;;;;3.63;3.28;;;;;;;26.23;34.61;94887.84;5052201;28;20750;-76
2022/04/30 11:39:02;;;;;;;4.70;3.00;;;;;;;26.37;34.26;94916.44;5052847;28;20198;-78
2022/04/30 11:41:38;;;;;;;3.30;3.00;;;;;;;26.23;34.08;94898.31;5072750;28;20222;-79
2022/04/30 11:46:59;;;;;;;5.82;2.92;;;;;;;26.26;34.08;94902.31;5073587;28;20186;-82
2022/04/30 11:49:29;;;;;;;3.60;2.85;;;;;;;26.26;33.93;94905.72;5071776;28;20200;-76
2022/04/30 11:52:09;;;;;;;2.95;2.75;;;;;;;26.22;34.43;94903.81;5038013;28;20190;-76
2022/04/30 11:54:38;;;;;;;2.53;2.35;;;;;;;26.09;34.36;94885.69;5075447;28;20194;-79
2022/04/30 11:57:06;;;;;;;2.90;2.70;;;;;;;26.22;34.21;94894.13;5078596;28;20190;-84
2022/04/30 11:59:35;;;;;;;4.07;3.03;;;;;;;26.17;34.58;94888.75;5071397;28;20189;-82
2022/04/30 12:02:04;;;;;;;3.05;2.75;;;;;;;26.28;34.07;94897.63;5071446;28;20194;-78
2022/04/30 12:04:34;;;;;;;3.00;2.50;;;;;;;26.29;34.52;94901.84;5071023;28;20654;-77
2022/04/30 12:07:13;;;;;;;2.80;2.55;;;;;;;26.25;34.51;94890.22;5053638;28;20275;-80
2022/04/30 12:09:45;;;;;;;2.92;2.72;;;;;;;26.17;34.48;94880.91;5053612;28;20840;-80
2022/04/30 12:12:17;;;;;;;3.65;3.00;;;;;;;26.26;34.25;94892.63;5071961;28;20186;-80
2022/04/30 12:14:45;;;;;;;3.13;2.90;;;;;;;26.24;34.41;94891.25;5074843;28;20218;-83
2022/04/30 12:17:12;;;;;;;3.00;2.80;;;;;;;26.22;34.39;94893.31;5072523;28;20190;-80
2022/04/30 12:25:16;;;;;;;3.30;3.00;;;;;;;25.99;34.29;94868.72;5072861;28;20239;-86
2022/04/30 12:27:52;;;;;;;3.70;3.00;;;;;;;25.92;34.45;94864.63;5070620;28;20206;-76
2022/04/30 12:30:28;;;;;;;3.17;2.83;;;;;;;26.02;34.57;94894.47;5070312;28;20201;-78
2022/04/30 12:33:00;;;;;;;3.10;2.83;;;;;;;25.97;34.69;94893.56;5052209;28;20752;-82
2022/04/30 12:35:30;;;;;;;3.55;2.45;;;;;;;25.85;34.56;94882.28;5070352;28;20205;-79
2022/04/30 12:38:08;;;;;;;3.85;2.90;;;;;;;25.84;34.85;94891.16;5070196;28;20186;-79
2022/04/30 12:40:36;;;;;;;2.85;2.65;;;;;;;25.81;34.78;94894.22;5070826;28;20198;-78
2022/04/30 12:43:03;;;;;;;3.40;2.53;;;;;;;25.74;35.07;94886.47;5070528;28;20183;-77
2022/04/30 12:45:31;;;;;;;3.25;2.25;;;;;;;25.64;35.00;94878.34;5076555;28;20252;-79
2022/04/30 12:47:58;;;;;;;2.75;2.55;;;;;;;25.63;35.04;94895.09;5071219;28;20198;-79
2022/04/30 12:50:25;;;;;;;2.80;2.53;;;;;;;25.58;34.81;94895.78;5072453;28;20202;-83
2022/04/30 12:52:52;;;;;;;3.67;2.72;;;;;;;25.43;35.32;94871.84;5070945;28;20222;-78